Terminal Aerodrome Forecast
Issued by NWS

Home | Current Version | Previous Version | Text Only | Print | Product List | Glossary On
Versions: 1 2 3 4 5 6 7 8 9 10 11 12 13 14 15 16 17 18 19 20
785
FTUS43 KDVN 110520
TAFBRL
TAF
KBRL 110520Z 1106/1206 36004KT P6SM BKN050
     FM112100 17005KT P6SM OVC100
     FM120400 20005KT 5SM -SN OVC040
      TEMPO 1204/1206 2SM -SN BR OVC025=

USA.gov is the U.S. government's official web portal to all federal, state and local government web resources and services.